首页
METAR-TAF:

METAR-TAF

机场 :

伦敦Biggin Hill, 英格兰

纬度: 51-19N, 经度: 000-02E, 海拔: 183米

当前天气观测

该预报发布于43分钟前的10:20 UTC
风速5节,风向北转西北
温度 17°C
湿度 94%
气压 1014 hPa
能見度: 9000
多云层高于800英尺

METAR: EGKB 141020Z 34005KT 9000 BKN008 17/16 Q1014

时间: 12:03 (11:03 UTC)

预报

该预报发布于3小时和6分钟前的07:57 UTC
预报有效从14日的 09点(UTC)到 14日的 18点(UTC)
风速4节,风向西北
能見度: 6000
多云层高于600英尺
几率 30% :
短暂存在
从 14日的 09点(UTC)到 14日的 18点(UTC)
风速15节,风向多变,有时为25节阵风
能見度: 3000
雷暴, 大雨
成为
从 14日的 10点(UTC)到 14日的 13点(UTC)
能见度10公里或以上
多云层高于1800英尺

TAF: EGKB 140757Z 1409/1418 32004KT 6000 BKN006 PROB30 TEMPO 1409/1418 VRB15G25KT 3000 +TSRA BECMG 1410/1413 9999 BKN018

超过4000个机场的气象观测和天气预报(METAR&TAF报告)。

可查询的气象台以黄色和红色小点在地图上表示。

将鼠标移到小点上方,可查看气象台名称。

然后点击查看天气观测和预报。

如需切换地图:点击带黑十字的绿色按钮放大地图;点击带横线的绿色按钮缩小地图;或者点击绿色箭头查看邻近地区的地图。


METAR-TAF: